Accueil
METAR-TAF:

METAR-TAF

Aéroports :

Heritage Field Airport

Pottstown, Pennsylvanie, États-Unis

latitude: 40-14-18N, longitude: 075-33-26W, altitude: 89 m

Observation

Le bulletin a été fait il y a 33 minutes, à 16:54 UTC
Vent 6 kt de ouest/sud-ouest
Température 18°C
Humidité 59%
Pression 1015 hPa
Visibilité: 16.1 km
Ciel couvert à une hauteur de 10000 ft

METAR: KPTW 011654Z AUTO 25006KT 10SM OVC100 18/10 A2996 RMK AO2 SLP141 T01780100

Heure: 13:27 (17:27 UTC)


TAF: absent

Observations et prévisions météorologiques de plus de 4000 aéroports (messages METAR et TAF).

Les stations disponibles sont représentées par des disques jaunes et rouges sur la carte.

Passer la souris dessus pour voir le nom de la station.

Cliquer dessus pour voir les observations et prévisions météorologiques.

Pour changer de carte: cliquez sur les boutons verts avec une croix noire pour zoomer, sur le bouton vert avec un tiret pour effectuer un zoom arrière, ou sur les flèches vertes pour les cartes adjacentes.


METAR-TAF: